This is the latest recevied weather packets stored in our database for station/object DO1BDB-12. If no packets are shown the sender has not sent any weather packets the latest 10 day(s).
| Time | Temp. | Humidity | Pressure | Rain* | Wind** | Luminosity | Snow |
|---|---|---|---|---|---|---|---|
| 1788160665 | 20° C | 86% | 101 hPa | - | - | - | - |
| 1788160599 | 20° C | 83% | 101 hPa | - | - | - | - |
| 1788160533 | 20.56° C | 81% | 101 hPa | - | - | - | - |
| 1788160485 | 21.67° C | 76% | 101 hPa | - | - | - | - |
| 1788160402 | 21.67° C | 78% | 101 hPa | - | - | - | - |
| 1788160336 | 21.67° C | 78% | 101 hPa | - | - | - | - |
| 1788160270 | 21.67° C | 81% | 101 hPa | - | - | - | - |
| 1788160204 | 20.56° C | 88% | 101 hPa | - | - | - | - |
| 1788160138 | 20° C | 89% | 101 hPa | - | - | - | - |
| 1788160072 | 19.44° C | 91% | 101 hPa | - | - | - | - |
| 1788160007 | 18.89° C | 92% | 101 hPa | - | - | - | - |
| 1788159941 | 18.89° C | 92% | 101 hPa | - | - | - | - |
| 1788159875 | 18.89° C | 95% | 101 hPa | - | - | - | - |
| 1788159809 | 18.33° C | 97% | 101 hPa | - | - | - | - |
| 1788159743 | 18.33° C | 95% | 101 hPa | - | - | - | - |
| 1788159677 | 18.33° C | 97% | 101 hPa | - | - | - | - |
| 1788159611 | 18.89° C | 97% | 101 hPa | - | - | - | - |
| 1788159546 | 18.33° C | 97% | 101 hPa | - | - | - | - |
| 1788159480 | 18.33° C | 98% | 101 hPa | - | - | - | - |
| 1788159414 | 18.33° C | 98% | 101 hPa | - | - | - | - |
| 1788159348 | 17.78° C | 98% | 101 hPa | - | - | - | - |
| 1788159282 | 17.78° C | 99% | 101 hPa | - | - | - | - |
| 1788159216 | 17.78° C | 98% | 101 hPa | - | - | - | - |
| 1788159150 | 17.78° C | 97% | 101 hPa | - | - | - | - |
| 1788159085 | 17.78° C | 96% | 101 hPa | - | - | - | - |
* Rain since midnight (hover to see other rain measurements)
** Current wind speed in m/s (hover to see current wind gust speed)